Time;durP1;ratioP1;P1;durP2;ratioP2;P2;SDS_P1;SDS_P2;PMS_P1;PMS_P2;Temp;Humidity;BMP_temperature;BMP_pressure;BME280_temperature;BME280_humidity;BME280_pressure;Samples;Min_cycle;Max_cycle;Signal;HPM_P1;HPM_P2
2024/01/20 00:00:07;;;;;;;9.93;5.95;;;;;;;28.86;68.61;101052.53;5045524;28;65354;-39
2024/01/20 00:02:38;;;;;;;12.20;5.53;;;;;;;28.81;69.16;101046.09;5033798;28;70358;-39
2024/01/20 00:05:09;;;;;;;7.90;5.33;;;;;;;28.87;66.92;101054.19;5051253;28;66472;-38
2024/01/20 00:07:41;;;;;;;13.85;5.20;;;;;;;28.88;66.18;101060.41;5031150;28;70099;-38
2024/01/20 00:10:14;;;;;;;7.93;4.78;;;;;;;28.76;66.33;101051.25;5049690;28;66323;-38
2024/01/20 00:12:45;;;;;;;6.27;5.03;;;;;;;28.86;66.57;101074.13;5034648;28;71113;-40
2024/01/20 00:15:16;;;;;;;9.57;4.80;;;;;;;28.88;66.64;101082.03;5056081;28;65650;-40
2024/01/20 00:17:47;;;;;;;5.90;4.72;;;;;;;28.92;66.55;101089.53;5061676;28;69768;-39
2024/01/20 00:20:18;;;;;;;5.33;4.80;;;;;;;28.93;66.59;101095.75;5047473;28;65959;-40
2024/01/20 00:22:50;;;;;;;14.02;5.53;;;;;;;28.96;66.31;101098.03;5061015;28;70159;-39
2024/01/20 00:25:21;;;;;;;18.67;9.38;;;;;;;29.00;66.87;101103.88;5035658;28;67657;-39
2024/01/20 00:27:52;;;;;;;45.63;21.20;;;;;;;28.78;67.01;101077.00;5059886;28;70507;-38
2024/01/20 00:30:24;;;;;;;;;;;;;;;28.79;70.13;101110.25;5076498;28;66144;-38
2024/01/20 00:32:54;;;;;;;45.72;20.05;;;;;;;29.02;67.07;101115.31;5041728;28;70546;-38
2024/01/20 00:35:25;;;;;;;48.38;22.33;;;;;;;29.12;67.10;101130.13;5054173;28;65957;-38
2024/01/20 00:37:56;;;;;;;39.75;17.75;;;;;;;29.14;67.94;101129.91;5059066;28;70363;-40
2024/01/20 00:40:27;;;;;;;47.63;16.80;;;;;;;29.14;67.94;101130.78;5059676;28;65957;-39
2024/01/20 00:42:57;;;;;;;39.42;14.73;;;;;;;29.11;67.74;101135.72;5042945;28;70216;-40
2024/01/20 00:45:28;;;;;;;38.80;15.63;;;;;;;29.19;67.94;101151.75;5056571;28;66934;-41
2024/01/20 00:47:59;;;;;;;37.17;14.38;;;;;;;29.24;68.30;101157.41;5040765;28;70642;-37
2024/01/20 00:50:30;;;;;;;26.75;13.13;;;;;;;29.26;68.52;101166.13;5044510;28;66496;-38
2024/01/20 00:53:01;;;;;;;19.15;11.65;;;;;;;29.27;68.08;101167.78;5043657;28;70060;-39
2024/01/20 00:55:31;;;;;;;22.15;11.65;;;;;;;29.27;68.34;101173.19;5045614;28;65996;-39
2024/01/20 00:58:02;;;;;;;27.45;11.55;;;;;;;29.29;69.01;101173.84;5059037;28;69805;-39
2024/01/20 01:00:32;;;;;;;22.70;10.88;;;;;;;29.31;68.57;101179.88;5044188;28;66358;-40
2024/01/20 01:03:04;;;;;;;27.55;11.57;;;;;;;29.28;69.14;101180.28;5039779;28;70547;-39
2024/01/20 01:05:35;;;;;;;24.77;10.45;;;;;;;29.33;69.07;101185.88;5039521;28;66494;-40
2024/01/20 01:08:05;;;;;;;25.42;10.23;;;;;;;28.91;69.58;101117.53;5041915;28;68203;-39
2024/01/20 01:10:36;;;;;;;20.83;10.35;;;;;;;29.40;69.24;101199.44;5049167;28;66247;-40
2024/01/20 01:13:08;;;;;;;21.00;11.10;;;;;;;29.43;69.77;101196.34;5061984;28;68914;-40
2024/01/20 01:15:38;;;;;;;19.70;10.15;;;;;;;29.40;69.48;101183.22;5043578;28;64845;-40
2024/01/20 01:18:09;;;;;;;23.85;11.32;;;;;;;29.53;74.88;101199.50;5035788;28;69394;-40
2024/01/20 01:20:40;;;;;;;31.83;12.93;;;;;;;29.61;74.83;101201.16;5044172;28;65231;-41
2024/01/20 01:23:11;;;;;;;34.70;11.52;;;;;;;29.62;74.93;101202.84;5050879;28;70416;-39
2024/01/20 01:25:42;;;;;;;27.60;11.07;;;;;;;29.62;74.21;101202.84;5059729;28;66933;-40
2024/01/20 01:28:13;;;;;;;18.30;9.45;;;;;;;29.63;74.53;101199.13;5054695;28;70425;-41
2024/01/20 01:30:44;;;;;;;28.70;11.35;;;;;;;29.66;74.32;101206.00;5044124;28;66251;-40
2024/01/20 01:33:15;;;;;;;24.73;10.40;;;;;;;29.53;74.47;101191.38;5052490;28;70554;-40
2024/01/20 01:35:46;;;;;;;23.60;11.05;;;;;;;29.61;74.42;101199.31;5047692;28;66200;-38
2024/01/20 01:38:17;;;;;;;25.92;10.23;;;;;;;29.64;74.42;101200.78;5045969;28;70211;-40
2024/01/20 01:40:47;;;;;;;27.23;10.65;;;;;;;29.61;75.23;101202.00;5032804;28;65634;-39
2024/01/20 01:43:18;;;;;;;24.52;10.52;;;;;;;29.68;72.90;101201.22;5041218;28;70107;-41
2024/01/20 01:45:49;;;;;;;11.70;8.30;;;;;;;29.66;71.42;101208.69;5038434;28;67054;-40
2024/01/20 01:48:21;;;;;;;13.57;8.85;;;;;;;29.65;71.10;101210.56;5055293;28;70164;-40
2024/01/20 01:50:55;;;;;;;10.15;7.82;;;;;;;29.66;70.83;101209.53;5039746;28;66675;-41
2024/01/20 01:53:26;;;;;;;15.93;8.40;;;;;;;29.66;70.69;101209.53;5040328;28;70031;-40
2024/01/20 01:55:57;;;;;;;11.05;8.45;;;;;;;29.69;70.49;101213.69;5057434;28;66782;-41
2024/01/20 01:58:28;;;;;;;15.50;8.03;;;;;;;29.59;70.53;101203.25;5048775;28;70710;-40
2024/01/20 02:01:00;;;;;;;16.05;8.75;;;;;;;29.66;70.17;101214.94;5035205;28;66225;-40
2024/01/20 02:03:31;;;;;;;8.65;6.80;;;;;;;29.72;70.64;101215.97;5035635;28;70105;-41
2024/01/20 02:06:02;;;;;;;8.45;7.45;;;;;;;29.72;70.30;101219.50;5034242;28;66596;-40
2024/01/20 02:08:35;;;;;;;12.00;7.77;;;;;;;29.33;70.29;101150.75;5040087;28;69487;-40
2024/01/20 02:11:07;;;;;;;12.02;7.65;;;;;;;29.78;70.25;101224.13;5038597;28;66822;-40
2024/01/20 02:13:39;;;;;;;16.15;8.25;;;;;;;29.78;69.86;101226.84;5037100;28;70554;-39
2024/01/20 02:16:10;;;;;;;13.13;7.47;;;;;;;29.80;70.35;101226.59;5056438;28;66539;-40
2024/01/20 02:18:41;;;;;;;10.48;7.60;;;;;;;29.82;70.40;101236.19;5037620;28;70139;-40
2024/01/20 02:21:12;;;;;;;11.52;7.97;;;;;;;29.82;69.75;101230.78;5038523;28;65377;-39
2024/01/20 02:23:46;;;;;;;16.00;8.57;;;;;;;29.73;70.24;101210.38;5039788;28;70435;-39
2024/01/20 02:26:17;;;;;;;17.45;8.57;;;;;;;29.87;70.22;101237.47;5036939;28;66180;-39
2024/01/20 02:28:49;;;;;;;8.55;7.18;;;;;;;29.84;69.83;101231.41;5036542;28;70567;-40
2024/01/20 02:31:20;;;;;;;11.55;7.60;;;;;;;29.84;69.74;101234.13;5044949;28;66353;-40
2024/01/20 02:33:50;;;;;;;15.32;7.57;;;;;;;29.91;70.06;101234.13;5040803;28;70607;-39
2024/01/20 02:36:22;;;;;;;9.07;7.55;;;;;;;29.88;70.09;101228.31;5051290;28;66525;-39
2024/01/20 02:38:53;;;;;;;11.98;7.10;;;;;;;29.95;69.64;101239.94;5046432;28;70769;-40
2024/01/20 02:41:24;;;;;;;12.13;7.38;;;;;;;29.96;69.95;101236.22;5040826;28;66608;-38
2024/01/20 02:43:55;;;;;;;9.50;8.00;;;;;;;29.95;70.06;101237.25;5051645;28;70585;-39
2024/01/20 02:46:25;;;;;;;14.20;8.57;;;;;;;29.99;69.75;101235.81;5056870;28;65616;-39
2024/01/20 02:48:56;;;;;;;14.10;8.10;;;;;;;30.00;69.90;101232.03;5047574;28;69694;-40
2024/01/20 02:51:27;;;;;;;7.93;6.75;;;;;;;30.02;70.25;101235.38;5054934;28;67660;-39
2024/01/20 02:53:59;;;;;;;13.68;7.25;;;;;;;30.01;70.12;101223.75;5055974;28;70825;-39
2024/01/20 02:56:30;;;;;;;9.15;7.97;;;;;;;29.84;70.08;101190.84;5038065;28;66793;-40
2024/01/20 02:59:01;;;;;;;9.65;7.28;;;;;;;29.94;70.21;101201.25;5036883;28;69682;-40
2024/01/20 03:01:32;;;;;;;9.55;7.45;;;;;;;30.06;70.32;101221.25;5042192;28;65341;-40
2024/01/20 03:04:02;;;;;;;11.90;7.38;;;;;;;30.07;70.02;101222.09;5042412;28;69758;-39
2024/01/20 03:06:34;;;;;;;8.25;7.45;;;;;;;30.11;70.25;101227.91;5050082;28;65612;-39
2024/01/20 03:09:05;;;;;;;11.87;7.60;;;;;;;30.11;70.39;101228.72;5062201;28;69715;-39
2024/01/20 03:11:36;;;;;;;12.40;8.13;;;;;;;30.12;70.47;101233.13;5062515;28;66174;-39
2024/01/20 03:14:08;;;;;;;7.83;7.03;;;;;;;29.86;70.07;101184.38;5062267;28;69815;-39
2024/01/20 03:16:39;;;;;;;18.17;9.48;;;;;;;30.14;72.17;101233.72;5056143;28;66458;-43
2024/01/20 03:19:10;;;;;;;23.52;9.35;;;;;;;30.15;72.27;101232.72;5039188;28;70451;-40
2024/01/20 03:21:41;;;;;;;15.10;9.60;;;;;;;30.11;72.04;101217.91;5030935;28;67574;-40
2024/01/20 03:24:12;;;;;;;15.82;9.05;;;;;;;30.16;72.61;101226.25;5040754;28;70209;-39
2024/01/20 03:26:49;;;;;;;15.23;8.75;;;;;;;30.17;72.91;101225.22;5050011;28;43432;-39
2024/01/20 03:29:21;;;;;;;18.00;9.70;;;;;;;30.14;72.52;101206.66;5035047;28;70020;-40
2024/01/20 03:31:52;;;;;;;25.27;10.10;;;;;;;30.17;72.78;101205.44;5050151;28;65915;-40
2024/01/20 03:34:23;;;;;;;23.67;10.15;;;;;;;30.13;72.81;101202.31;5015747;28;69919;-39
2024/01/20 03:36:55;;;;;;;15.82;8.60;;;;;;;30.15;73.05;101199.41;5036715;28;65969;-39
2024/01/20 03:39:26;;;;;;;16.67;9.90;;;;;;;30.21;73.40;101196.69;5043484;28;70573;-39
2024/01/20 03:41:57;;;;;;;17.88;9.30;;;;;;;30.25;72.79;101200.66;5041639;28;65828;-40
2024/01/20 03:44:28;;;;;;;16.13;9.27;;;;;;;30.24;73.01;101196.31;5047231;28;69796;-39
2024/01/20 03:46:59;;;;;;;15.43;9.23;;;;;;;30.31;72.26;101193.59;5044690;28;66414;-40
2024/01/20 03:49:30;;;;;;;16.40;9.60;;;;;;;30.26;73.05;101178.00;5047600;28;70616;-41
2024/01/20 03:52:00;;;;;;;19.25;9.48;;;;;;;30.33;72.81;101183.38;5043414;28;65633;-39
2024/01/20 03:54:31;;;;;;;24.33;10.70;;;;;;;30.35;72.88;101175.91;5043738;28;71247;-40
2024/01/20 03:57:02;;;;;;;18.45;9.20;;;;;;;30.38;73.02;101177.34;5041920;28;65492;-39
2024/01/20 03:59:33;;;;;;;20.52;9.02;;;;;;;30.39;72.96;101154.66;5052041;28;70603;-39
2024/01/20 04:02:04;;;;;;;18.10;9.85;;;;;;;30.41;72.71;101164.22;5047556;28;67367;-41
2024/01/20 04:04:37;;;;;;;21.73;9.55;;;;;;;30.40;72.91;101150.94;5034774;28;69921;-40
2024/01/20 04:07:09;;;;;;;19.95;9.95;;;;;;;30.37;71.82;101145.91;5038605;28;66565;-40
2024/01/20 04:09:41;;;;;;;21.17;9.15;;;;;;;30.40;73.29;101145.50;5042971;28;69223;-39
2024/01/20 04:12:11;;;;;;;21.58;9.52;;;;;;;30.49;72.86;101155.06;5045451;28;66693;-39
2024/01/20 04:14:43;;;;;;;14.48;8.88;;;;;;;30.52;72.87;101146.50;5067890;28;70039;-39
2024/01/20 04:17:14;;;;;;;13.15;9.27;;;;;;;30.54;72.68;101135.50;5054145;28;65815;-39
2024/01/20 04:19:45;;;;;;;12.23;8.55;;;;;;;30.52;72.76;101127.56;5054233;28;70374;-40
2024/01/20 04:22:16;;;;;;;17.50;9.80;;;;;;;30.58;72.78;101137.53;5051663;28;66630;-38
2024/01/20 04:24:47;;;;;;;11.23;8.67;;;;;;;30.61;72.32;101129.00;5055736;28;69686;-38
2024/01/20 04:27:17;;;;;;;13.85;9.10;;;;;;;30.64;72.86;101130.44;5067393;28;65656;-40
2024/01/20 04:29:49;;;;;;;18.60;9.53;;;;;;;30.65;72.44;101119.41;5057322;28;70415;-38
2024/01/20 04:32:19;;;;;;;12.98;9.45;;;;;;;30.68;71.99;101121.69;5064209;28;65483;-38
2024/01/20 04:34:50;;;;;;;22.55;9.63;;;;;;;30.69;72.50;101117.94;5053320;28;70663;-46
2024/01/20 04:37:21;;;;;;;19.73;11.48;;;;;;;30.73;70.92;101110.22;5054284;28;65621;-38
2024/01/20 04:39:52;;;;;;;48.33;14.07;;;;;;;30.76;70.35;101111.66;5056968;28;69683;-39
2024/01/20 04:42:23;;;;;;;40.15;14.40;;;;;;;30.79;69.45;101100.41;5040676;28;65820;-39
2024/01/20 04:44:54;;;;;;;28.17;13.95;;;;;;;30.76;69.41;101089.97;5048275;28;70040;-39
2024/01/20 04:47:26;;;;;;;32.28;14.50;;;;;;;30.88;69.67;101093.72;5042816;28;66179;-37
2024/01/20 04:49:57;;;;;;;35.70;16.92;;;;;;;30.81;68.99;101082.09;5032295;28;70496;-38
2024/01/20 04:52:28;;;;;;;27.48;15.02;;;;;;;30.83;69.28;101071.88;5047997;28;67849;-38
2024/01/20 04:54:59;;;;;;;40.50;17.27;;;;;;;30.93;68.54;101080.38;5049434;28;69763;-40
2024/01/20 04:57:30;;;;;;;24.88;14.75;;;;;;;30.96;69.14;101073.69;5052243;28;66255;-40
2024/01/20 05:00:01;;;;;;;28.17;13.70;;;;;;;30.98;69.91;101058.91;5038042;28;69899;-40
2024/01/20 05:02:32;;;;;;;14.33;11.17;;;;;;;31.00;70.17;101064.91;5029951;28;66262;-39
2024/01/20 05:05:03;;;;;;;20.23;11.85;;;;;;;30.99;70.32;101049.72;5060227;28;70314;-40
2024/01/20 05:07:34;;;;;;;18.70;11.97;;;;;;;31.10;70.11;101054.44;5041706;28;66300;-39
2024/01/20 05:10:05;;;;;;;14.77;11.20;;;;;;;31.12;70.42;101036.09;5028536;28;69784;-44
2024/01/20 05:12:36;;;;;;;20.00;11.03;;;;;;;31.13;70.56;101037.75;5030044;28;65309;-40
2024/01/20 05:15:11;;;;;;;15.98;10.93;;;;;;;31.16;70.83;101022.94;5024058;28;70367;-38
2024/01/20 05:17:43;;;;;;;17.27;11.57;;;;;;;31.28;70.23;101028.47;5036016;28;66217;-38
2024/01/20 05:20:14;;;;;;;23.40;11.52;;;;;;;31.32;70.46;101029.69;5041676;28;69736;-40
2024/01/20 05:22:45;;;;;;;22.30;11.23;;;;;;;31.32;70.83;101018.88;5055419;28;64957;-39
2024/01/20 05:25:16;;;;;;;15.73;11.63;;;;;;;31.36;70.51;101009.25;5030395;28;70423;-40
2024/01/20 05:27:47;;;;;;;13.85;10.63;;;;;;;31.31;70.45;100990.06;5072668;28;66699;-41
2024/01/20 05:30:18;;;;;;;18.40;11.32;;;;;;;31.41;70.78;101006.72;5058479;28;70178;-40
2024/01/20 05:32:49;;;;;;;16.75;10.57;;;;;;;31.41;70.75;100990.44;5034824;28;66144;-39
2024/01/20 05:35:20;;;;;;;15.43;10.80;;;;;;;31.45;70.52;100991.66;5059003;28;69799;-40
2024/01/20 05:37:51;;;;;;;16.48;11.88;;;;;;;31.47;70.38;100984.13;5057362;28;65931;-39
2024/01/20 05:40:22;;;;;;;14.15;11.10;;;;;;;31.49;70.25;100976.63;5050255;28;69606;-40
2024/01/20 05:42:53;;;;;;;30.15;13.75;;;;;;;31.40;69.99;100967.13;5052155;28;65649;-40
2024/01/20 05:45:23;;;;;;;27.05;13.45;;;;;;;31.07;69.78;100913.16;5047060;28;70400;-39
2024/01/20 05:47:54;;;;;;;19.65;12.98;;;;;;;31.24;69.97;100929.69;5053171;28;66493;-39
2024/01/20 05:50:25;;;;;;;17.30;12.77;;;;;;;31.32;70.08;100959.22;5041360;28;69719;-39
2024/01/20 05:52:56;;;;;;;25.02;14.00;;;;;;;31.33;69.69;100948.16;5045927;28;66413;-39
2024/01/20 05:55:27;;;;;;;33.05;14.13;;;;;;;31.34;69.88;100938.13;5049230;28;69905;-39
2024/01/20 05:57:58;;;;;;;29.30;14.70;;;;;;;31.33;69.73;100933.78;5057640;28;67076;-40
2024/01/20 06:00:28;;;;;;;28.48;13.82;;;;;;;31.30;69.41;100923.38;5048320;28;70082;-38
2024/01/20 06:02:59;;;;;;;29.75;14.02;;;;;;;31.11;65.87;100920.59;5060006;28;66164;-40
2024/01/20 06:05:31;;;;;;;22.40;13.20;;;;;;;30.80;63.34;100893.56;5076818;28;70076;-39
2024/01/20 06:08:01;;;;;;;23.05;13.98;;;;;;;30.77;61.66;100907.53;5041532;28;65976;-39
2024/01/20 06:10:32;;;;;;;25.13;12.38;;;;;;;30.59;60.18;100908.25;5030457;28;69559;-39
2024/01/20 06:13:03;;;;;;;26.88;11.95;;;;;;;30.41;58.81;100896.28;5057844;28;66709;-41
2024/01/20 06:15:35;;;;;;;30.23;12.52;;;;;;;30.27;57.94;100886.56;5060263;28;70619;-42
2024/01/20 06:18:06;;;;;;;21.40;12.25;;;;;;;30.11;57.36;100877.03;5045235;28;65172;-41
2024/01/20 06:20:37;;;;;;;29.88;12.25;;;;;;;29.96;56.72;100861.09;5039767;28;69791;-41
2024/01/20 06:23:08;;;;;;;27.23;12.55;;;;;;;29.89;57.33;100871.09;5027038;28;66065;-41
2024/01/20 06:25:40;;;;;;;29.17;12.88;;;;;;;29.77;56.25;100862.81;5040293;28;69874;-41
2024/01/20 06:28:11;;;;;;;20.85;12.52;;;;;;;29.70;56.97;100863.88;5041007;28;65728;-42
2024/01/20 06:30:43;;;;;;;28.63;11.98;;;;;;;29.68;56.99;100860.56;5040805;28;69996;-42
2024/01/20 06:33:15;;;;;;;25.70;12.57;;;;;;;29.63;56.72;100858.50;5040652;28;66876;-42
2024/01/20 06:35:47;;;;;;;19.95;12.48;;;;;;;29.51;56.05;100854.78;5042770;28;69896;-41
2024/01/20 06:38:18;;;;;;;28.10;13.20;;;;;;;29.48;55.54;100855.19;5040369;28;66309;-40
2024/01/20 06:40:49;;;;;;;24.40;13.07;;;;;;;29.42;55.44;100845.22;5028735;28;70003;-40
2024/01/20 06:43:20;;;;;;;22.10;12.00;;;;;;;29.37;54.10;100837.75;5017720;28;66114;-40
2024/01/20 06:45:51;;;;;;;24.50;12.80;;;;;;;29.32;54.29;100841.09;5039666;28;70309;-41
2024/01/20 06:48:22;;;;;;;28.73;12.88;;;;;;;29.28;53.58;100833.59;5041001;28;66327;-40
2024/01/20 06:50:53;;;;;;;24.05;13.32;;;;;;;29.18;53.83;100823.25;5038193;28;70148;-40
2024/01/20 06:53:24;;;;;;;25.38;13.68;;;;;;;29.12;53.21;100824.09;5057859;28;66283;-41
2024/01/20 06:55:55;;;;;;;17.20;11.70;;;;;;;29.07;53.47;100810.38;5041529;28;70103;-40
2024/01/20 06:58:26;;;;;;;21.77;12.77;;;;;;;29.19;53.96;100819.50;5057217;28;66643;-41
2024/01/20 07:00:57;;;;;;;18.58;12.85;;;;;;;29.16;53.29;100798.31;5064040;28;72558;-40
2024/01/20 07:03:28;;;;;;;18.20;11.95;;;;;;;29.26;53.58;100814.91;5079253;28;65697;-40
2024/01/20 07:06:00;;;;;;;22.15;12.90;;;;;;;29.30;52.78;100807.22;5062822;28;70856;-40
2024/01/20 07:08:31;;;;;;;19.45;12.75;;;;;;;29.16;53.07;100776.69;5064451;28;66716;-39
2024/01/20 07:11:01;;;;;;;19.50;12.57;;;;;;;29.31;52.46;100800.75;5064740;28;70082;-39
2024/01/20 07:13:32;;;;;;;22.38;12.98;;;;;;;29.16;52.84;100779.41;5063786;28;66509;-40
2024/01/20 07:16:15;;;;;;;18.57;12.57;;;;;;;29.27;51.90;100805.75;5054045;28;69215;-40
2024/01/20 07:18:46;;;;;;;22.48;13.82;;;;;;;29.29;52.36;100808.25;5044077;28;66592;-39
2024/01/20 07:21:20;;;;;;;20.13;13.57;;;;;;;29.27;52.01;100804.94;5040293;28;70219;-40
2024/01/20 07:23:50;;;;;;;20.17;14.07;;;;;;;29.26;52.02;100804.09;5038517;28;66332;-40
2024/01/20 07:26:21;;;;;;;20.65;13.85;;;;;;;29.25;51.89;100799.72;5036760;28;69613;-39
2024/01/20 07:28:52;;;;;;;19.42;13.50;;;;;;;29.25;51.79;100797.03;5041130;28;65980;-39
2024/01/20 07:31:23;;;;;;;23.13;14.32;;;;;;;29.25;51.66;100796.19;5040601;28;69413;-40
2024/01/20 07:33:53;;;;;;;19.73;14.13;;;;;;;29.24;52.02;100795.38;5029863;28;65703;-40
2024/01/20 07:36:24;;;;;;;24.30;14.40;;;;;;;29.22;52.04;100792.03;5040333;28;68902;-40
2024/01/20 07:38:55;;;;;;;20.40;13.98;;;;;;;29.12;51.78;100781.69;5044832;28;67008;-39
2024/01/20 07:41:27;;;;;;;19.65;14.60;;;;;;;29.21;51.21;100795.81;5052681;28;68996;-40
2024/01/20 07:43:58;;;;;;;23.33;14.60;;;;;;;29.19;51.26;100795.19;5064373;28;66465;-39
2024/01/20 07:46:29;;;;;;;17.52;14.00;;;;;;;29.15;51.17;100792.06;5045803;28;69380;-40
2024/01/20 07:49:00;;;;;;;20.27;13.98;;;;;;;29.08;50.82;100782.31;5042713;28;65952;-40
2024/01/20 07:51:31;;;;;;;19.13;14.10;;;;;;;29.12;50.96;100789.78;5043575;28;69431;-40
2024/01/20 07:54:02;;;;;;;18.13;13.93;;;;;;;29.12;51.88;100792.50;5043560;28;66572;-39
2024/01/20 07:56:33;;;;;;;14.98;13.48;;;;;;;29.09;51.42;100786.69;5043308;28;69274;-39
2024/01/20 07:59:05;;;;;;;15.30;13.73;;;;;;;28.96;51.03;100766.72;5046233;28;66245;-39
2024/01/20 08:01:36;;;;;;;22.40;14.93;;;;;;;29.08;51.56;100791.25;5055511;28;70039;-38
2024/01/20 08:04:07;;;;;;;24.45;14.63;;;;;;;28.94;51.63;100766.09;5058383;28;66089;-39
2024/01/20 08:06:38;;;;;;;17.13;13.88;;;;;;;28.99;51.46;100770.06;5042479;28;68841;-39
2024/01/20 08:09:10;;;;;;;22.75;14.75;;;;;;;29.07;51.04;100788.78;5041629;28;67063;-40
2024/01/20 08:11:41;;;;;;;18.95;14.60;;;;;;;29.00;51.33;100777.94;5042663;28;70126;-39
2024/01/20 08:14:11;;;;;;;23.92;14.38;;;;;;;29.00;51.26;100782.50;5043629;28;65937;-39
2024/01/20 08:16:43;;;;;;;19.08;14.23;;;;;;;28.96;50.65;100772.13;5044079;28;69557;-39
2024/01/20 08:19:14;;;;;;;19.63;13.95;;;;;;;28.96;51.03;100785.63;5043079;28;65492;-40
2024/01/20 08:21:46;;;;;;;27.13;14.13;;;;;;;28.96;51.09;100787.50;5051466;28;69246;-40
2024/01/20 08:24:18;;;;;;;20.75;14.75;;;;;;;28.97;50.61;100799.94;5025767;28;64999;-40
2024/01/20 08:26:50;;;;;;;26.02;14.82;;;;;;;28.82;50.79;100770.47;5053215;28;69764;-41
2024/01/20 08:29:23;;;;;;;20.38;14.63;;;;;;;28.92;50.69;100795.19;5041615;28;65549;-39
2024/01/20 08:31:54;;;;;;;20.73;14.95;;;;;;;28.92;50.56;100797.06;5048083;28;69915;-39
2024/01/20 08:34:25;;;;;;;23.17;15.57;;;;;;;28.86;50.36;100776.28;5036635;28;66148;-39
2024/01/20 08:36:56;;;;;;;20.83;14.03;;;;;;;28.86;50.61;100782.53;5044725;28;69994;-40
2024/01/20 08:39:26;;;;;;;19.80;14.73;;;;;;;28.90;51.05;100799.97;5043767;28;65519;-40
2024/01/20 08:41:57;;;;;;;23.17;14.85;;;;;;;28.90;50.53;100789.16;5060594;28;70028;-40
2024/01/20 08:44:28;;;;;;;22.15;15.82;;;;;;;28.89;52.49;100795.63;5060661;28;65837;-40
2024/01/20 08:46:59;;;;;;;33.73;16.53;;;;;;;28.96;54.45;100807.22;5061620;28;69727;-41
2024/01/20 08:49:30;;;;;;;24.85;15.57;;;;;;;29.05;54.74;100796.25;5057972;28;65283;-41
2024/01/20 08:52:01;;;;;;;22.08;14.65;;;;;;;29.11;55.45;100787.28;5039129;28;70317;-39
2024/01/20 08:54:32;;;;;;;22.83;15.55;;;;;;;29.33;55.56;100804.09;5037234;28;65876;-42
2024/01/20 08:57:04;;;;;;;18.55;14.90;;;;;;;29.46;56.32;100814.88;5047817;28;69018;-41
2024/01/20 08:59:35;;;;;;;21.85;14.27;;;;;;;29.56;56.52;100815.25;5023489;28;67140;-39
2024/01/20 09:02:06;;;;;;;22.80;13.57;;;;;;;29.64;57.35;100816.06;5036280;28;69964;-40
2024/01/20 09:04:37;;;;;;;22.05;13.98;;;;;;;29.75;57.22;100818.94;5062304;28;67154;-39
2024/01/20 09:07:08;;;;;;;26.65;14.13;;;;;;;29.86;59.42;100824.72;5054709;28;69380;-41
2024/01/20 09:09:38;;;;;;;28.10;15.90;;;;;;;29.97;63.36;100821.34;5032271;28;66072;-41
2024/01/20 09:12:09;;;;;;;39.80;16.73;;;;;;;30.06;64.98;100820.03;5041003;28;70043;-41
2024/01/20 09:14:40;;;;;;;31.10;16.67;;;;;;;30.23;65.34;100821.25;5050707;28;65606;-41
2024/01/20 09:17:11;;;;;;;32.63;16.80;;;;;;;30.32;65.94;100829.09;5069675;28;70617;-41
2024/01/20 09:19:42;;;;;;;32.10;15.77;;;;;;;30.41;66.32;100830.50;5068589;28;66514;-41
2024/01/20 09:22:13;;;;;;;26.70;15.10;;;;;;;30.47;66.89;100826.91;5041139;28;70972;-41
2024/01/20 09:24:45;;;;;;;31.48;14.75;;;;;;;30.55;67.26;100837.47;5054374;28;65079;-42
2024/01/20 09:27:17;;;;;;;22.30;14.90;;;;;;;30.68;67.06;100845.50;5049162;28;69370;-43
2024/01/20 09:29:47;;;;;;;24.83;15.77;;;;;;;30.75;66.58;100850.03;5043374;28;66757;-43
2024/01/20 09:32:19;;;;;;;24.23;13.70;;;;;;;30.77;67.79;100842.53;5042197;28;71308;-40
2024/01/20 09:34:50;;;;;;;30.80;12.95;;;;;;;30.76;68.79;100840.84;5038696;28;66041;-42
2024/01/20 09:37:21;;;;;;;18.95;11.88;;;;;;;30.89;68.56;100857.03;5028182;28;70578;-40
2024/01/20 09:39:51;;;;;;;31.58;12.13;;;;;;;30.94;69.01;100859.91;5042800;28;66371;-42
2024/01/20 09:42:23;;;;;;;29.50;13.00;;;;;;;30.93;68.83;100858.25;5034236;28;69372;-41
2024/01/20 09:44:54;;;;;;;22.90;11.15;;;;;;;30.97;68.24;100875.72;5041023;28;66158;-43
2024/01/20 09:47:25;;;;;;;23.50;11.07;;;;;;;31.04;68.34;100875.69;5048444;28;69160;-39
2024/01/20 09:49:56;;;;;;;23.67;11.20;;;;;;;31.00;68.70;100869.03;5048453;28;66007;-40
2024/01/20 09:52:28;;;;;;;29.98;10.90;;;;;;;30.98;69.11;100855.72;5061064;28;69186;-41
2024/01/20 09:55:23;;;;;;;22.73;10.35;;;;;;;31.05;69.04;100872.72;5060861;28;65321;-40
2024/01/20 09:57:55;;;;;;;29.88;9.88;;;;;;;31.12;68.97;100876.22;5057270;28;70573;-40
2024/01/20 10:00:26;;;;;;;26.20;8.73;;;;;;;31.13;66.47;100869.75;5040953;28;66169;-37
2024/01/20 10:02:57;;;;;;;32.03;8.25;;;;;;;31.14;68.43;100876.81;5045490;28;69927;-40
2024/01/20 10:05:31;;;;;;;16.88;8.80;;;;;;;31.19;66.58;100873.44;5041416;28;66110;-40
2024/01/20 10:08:02;;;;;;;16.88;8.38;;;;;;;31.30;65.53;100880.03;5040457;28;70505;-38
2024/01/20 10:10:33;;;;;;;18.02;9.20;;;;;;;31.28;68.49;100876.69;5042887;28;65327;-41
2024/01/20 10:13:04;;;;;;;26.15;7.97;;;;;;;31.30;68.75;100880.84;5045610;28;70408;-41
2024/01/20 10:15:35;;;;;;;29.88;9.32;;;;;;;31.35;67.63;100882.88;5042124;28;66631;-44
2024/01/20 10:18:10;;;;;;;;;;;;;;;31.19;69.15;100891.59;5034191;28;69839;-40
2024/01/20 10:20:42;;;;;;;25.20;9.82;;;;;;;31.30;68.27;100902.53;5043804;28;66429;-38
2024/01/20 10:23:17;;;;;;;16.05;8.65;;;;;;;31.32;68.07;100895.00;5043940;28;70568;-40
2024/01/20 10:25:48;;;;;;;19.85;7.97;;;;;;;31.28;67.34;100898.38;5044973;28;66272;-40
2024/01/20 10:28:22;;;;;;;20.05;8.00;;;;;;;30.95;67.65;100850.72;5043509;28;69189;-42
2024/01/20 10:30:53;;;;;;;15.13;7.88;;;;;;;31.28;67.92;100914.63;5045397;28;66584;-40
2024/01/20 10:33:24;;;;;;;22.47;8.43;;;;;;;31.20;67.87;100901.38;5045087;28;70001;-40
2024/01/20 10:35:55;;;;;;;18.00;8.40;;;;;;;31.24;68.34;100918.84;5042249;28;67246;-40
2024/01/20 10:38:28;;;;;;;24.48;8.50;;;;;;;31.22;68.53;100904.69;5044641;28;70484;-40
2024/01/20 10:41:01;;;;;;;25.10;9.07;;;;;;;31.25;68.69;100915.09;5041350;28;66572;-40
2024/01/20 10:43:39;;;;;;;19.15;8.80;;;;;;;31.24;68.51;100927.00;5040740;28;70369;-41
2024/01/20 10:46:21;;;;;;;20.52;9.05;;;;;;;30.81;69.07;100865.44;5044991;28;66146;-41
2024/01/20 10:48:54;;;;;;;12.13;7.43;;;;;;;31.31;67.61;100931.28;5044835;28;69581;-42
2024/01/20 10:51:28;;;;;;;15.57;8.25;;;;;;;31.35;67.27;100931.69;5061181;28;65762;-39
2024/01/20 10:54:01;;;;;;;8.57;7.65;;;;;;;31.39;66.50;100938.34;5051050;28;70037;-39
2024/01/20 10:56:35;;;;;;;13.88;7.53;;;;;;;30.97;66.04;100862.16;5043318;28;65172;-39
2024/01/20 10:59:13;;;;;;;10.80;7.65;;;;;;;31.46;66.28;100944.53;5052956;28;69867;-42
2024/01/20 11:01:47;;;;;;;12.63;7.60;;;;;;;31.49;66.15;100954.94;5046963;28;66834;-40
2024/01/20 11:04:19;;;;;;;12.68;8.40;;;;;;;31.51;66.10;100952.84;5054660;28;70428;-40
2024/01/20 11:06:50;;;;;;;8.05;7.25;;;;;;;31.49;66.18;100949.50;5062240;28;66100;-40
2024/01/20 11:09:22;;;;;;;10.73;7.95;;;;;;;31.46;65.97;100944.53;5063036;28;70026;-41
2024/01/20 11:12:04;;;;;;;11.40;7.68;;;;;;;31.36;66.64;100933.34;5038941;28;68150;-41
2024/01/20 11:14:36;;;;;;;10.38;7.70;;;;;;;31.58;66.14;100955.47;5064021;28;70134;-40
2024/01/20 11:17:14;;;;;;;12.93;7.78;;;;;;;31.55;67.00;100964.88;5064508;28;65741;-41
2024/01/20 11:19:45;;;;;;;11.05;7.63;;;;;;;31.59;66.34;100963.41;5039442;28;69715;-41
2024/01/20 11:22:33;;;;;;;15.30;7.03;;;;;;;31.05;67.31;100880.03;5032404;28;66130;-41
2024/01/20 11:25:08;;;;;;;15.82;8.43;;;;;;;31.61;66.48;100958.56;5043366;28;70524;-40
2024/01/20 11:27:46;;;;;;;12.27;7.97;;;;;;;31.54;68.53;100967.84;5075331;28;65924;-40
2024/01/20 11:30:29;;;;;;;14.02;8.23;;;;;;;31.52;69.06;100970.75;5058309;28;69505;-41
2024/01/20 11:33:01;;;;;;;19.88;9.18;;;;;;;31.49;69.30;100968.50;5043685;28;66108;-40